A- A+ FrançaisEnglishEspañol中国

最近的 OICI IlamMGGT GuatemalaMMTP TapachulaLFSO Nancy-Ochey FMMS Sainte MarieLFMH St-Etienne Boutheon

飞行员的航空天气,使用METAR(气象机场报告)进行的飞行准备和TAF(终端机场预报:针对以下情况的短期天气预报)航空)。 以及其他资源,例如VAC(目视进近图)和NOTAM(通知飞行员)以进行预试飞行.

METAR, TAF, VAC, NOTAM Ljungbyhed机场 (Suède) / OACI ESTL

它位于附近 Ljungbyhed (Suède). 可提供5天天气预报 Gålarp 位于 6.2 km.

机场的高度为 Ljungbyhed机场的

43 m = 141 ft

附近的机场 Ljungbyhed机场的

跑道 Ljungbyhed机场的

METAR Ljungbyhed机场的 - ESTL

ESTL 150420Z AUTO 16011KT 9999 NCD 02/M02 Q1018

Ljungbyhed机场METAR解码 (Suède)

ESTL机场发行的METAR日期2020年03月15日至04:20 GMT. 这是一个自动生成的METAR, 警告:此METAR已过期, 已于 24 天 23 小时 18 分钟.

可见度为大于 10 km = 大于6.2 sm.

温度为2°C = 36 °F 露点为-2°C = 28 °F 。 这相当于75%的相对湿度。.

QNH是1018 hPa = 30.06 inHg

的风11 kt = 20 km/h, 风向为160°.

天空晴朗

TAF Ljungbyhed机场的 - ESTL

ESTL 010802Z 0109/0112 14008KT 9999 FEW020

Ljungbyhed机场TAF解码 (Suède)

ESTL机场发行的TAF日期2019年11月01日至08:02 GMT 警告:此TAF已过期, 已于 159 天 19 小时 36 分钟.

du vendredi 1er novembre 2019 à 09:00 heure TU au vendredi 1er novembre 2019 à 12:00 heure TU

的风8 kt = 15 km/h, 风向为140°.

可见度为大于 10 km = 大于6.2 sm.

处少云 2000 ft=610云.

Ljungbyhed机场的NOTAM

提供的NOTAM不能保证其时事性。 在将其用于飞行准备或在飞行期间使用之前,飞行员是唯一负责验证其有效性的人员。

没有通知

数据源